sensor_id;sensor_type;location;lat;lon;timestamp;pressure;altitude;pressure_sealevel;temperature;humidity
40992;BME280;29633;49.168;9.848;2022-12-16T00:01:12;95546.56;;;4.40;63.00
40992;BME280;29633;49.168;9.848;2022-12-16T00:03:39;95550.63;;;4.43;62.78
40992;BME280;29633;49.168;9.848;2022-12-16T00:06:06;95543.63;;;4.45;62.81
40992;BME280;29633;49.168;9.848;2022-12-16T00:08:34;95548.75;;;4.45;62.78
40992;BME280;29633;49.168;9.848;2022-12-16T00:11:01;95547.13;;;4.44;62.70
40992;BME280;29633;49.168;9.848;2022-12-16T00:13:28;95542.25;;;4.41;62.76
40992;BME280;29633;49.168;9.848;2022-12-16T00:15:54;95538.03;;;4.40;62.72
40992;BME280;29633;49.168;9.848;2022-12-16T00:18:19;95538.13;;;4.38;63.01
40992;BME280;29633;49.168;9.848;2022-12-16T00:20:47;95557.06;;;4.37;63.05
40992;BME280;29633;49.168;9.848;2022-12-16T00:23:14;95543.50;;;4.35;62.91
40992;BME280;29633;49.168;9.848;2022-12-16T00:25:41;95548.53;;;4.37;63.09
40992;BME280;29633;49.168;9.848;2022-12-16T00:28:08;95557.84;;;4.38;63.05
40992;BME280;29633;49.168;9.848;2022-12-16T00:30:34;95564.63;;;4.39;62.89
40992;BME280;29633;49.168;9.848;2022-12-16T00:32:59;95556.00;;;4.40;62.84
40992;BME280;29633;49.168;9.848;2022-12-16T00:35:25;95557.63;;;4.41;63.06
40992;BME280;29633;49.168;9.848;2022-12-16T00:37:50;95555.06;;;4.41;62.95
40992;BME280;29633;49.168;9.848;2022-12-16T00:40:16;95554.94;;;4.42;63.06
40992;BME280;29633;49.168;9.848;2022-12-16T00:42:42;95555.75;;;4.43;62.90
40992;BME280;29633;49.168;9.848;2022-12-16T00:45:07;95553.19;;;4.43;62.82
40992;BME280;29633;49.168;9.848;2022-12-16T00:47:33;95560.88;;;4.43;62.83
40992;BME280;29633;49.168;9.848;2022-12-16T00:49:59;95560.66;;;4.46;62.91
40992;BME280;29633;49.168;9.848;2022-12-16T00:52:24;95566.69;;;4.45;63.12
40992;BME280;29633;49.168;9.848;2022-12-16T00:54:50;95568.34;;;4.46;62.96
40992;BME280;29633;49.168;9.848;2022-12-16T00:57:16;95569.28;;;4.45;63.07
40992;BME280;29633;49.168;9.848;2022-12-16T00:59:41;95574.31;;;4.46;62.73
40992;BME280;29633;49.168;9.848;2022-12-16T01:02:07;95575.81;;;4.49;62.93
40992;BME280;29633;49.168;9.848;2022-12-16T01:04:32;95568.00;;;4.51;62.80
40992;BME280;29633;49.168;9.848;2022-12-16T01:06:58;95581.66;;;4.51;63.02
40992;BME280;29633;49.168;9.848;2022-12-16T01:09:24;95573.03;;;4.52;62.98
40992;BME280;29633;49.168;9.848;2022-12-16T01:11:49;95585.06;;;4.52;62.86
40992;BME280;29633;49.168;9.848;2022-12-16T01:14:15;95592.63;;;4.53;62.92
40992;BME280;29633;49.168;9.848;2022-12-16T01:16:40;95590.03;;;4.53;62.78
40992;BME280;29633;49.168;9.848;2022-12-16T01:19:06;95595.06;;;4.55;63.15
40992;BME280;29633;49.168;9.848;2022-12-16T01:21:32;95593.34;;;4.55;63.08
40992;BME280;29633;49.168;9.848;2022-12-16T01:23:57;95594.94;;;4.56;62.86
40992;BME280;29633;49.168;9.848;2022-12-16T01:26:23;95593.34;;;4.55;62.93
40992;BME280;29633;49.168;9.848;2022-12-16T01:28:49;95600.06;;;4.56;62.96
40992;BME280;29633;49.168;9.848;2022-12-16T01:31:16;95599.16;;;4.57;63.03
40992;BME280;29633;49.168;9.848;2022-12-16T01:33:43;95599.97;;;4.58;63.19
40992;BME280;29633;49.168;9.848;2022-12-16T01:36:08;95589.59;;;4.59;62.99
40992;BME280;29633;49.168;9.848;2022-12-16T01:38:35;95593.09;;;4.58;62.96
40992;BME280;29633;49.168;9.848;2022-12-16T01:41:02;95597.31;;;4.59;62.88
40992;BME280;29633;49.168;9.848;2022-12-16T01:43:30;95600.78;;;4.58;63.04
40992;BME280;29633;49.168;9.848;2022-12-16T01:48:45;95609.31;;;4.59;62.88
40992;BME280;29633;49.168;9.848;2022-12-16T01:51:36;95610.13;;;4.59;62.96
40992;BME280;29633;49.168;9.848;2022-12-16T01:54:08;95603.34;;;4.58;62.84
40992;BME280;29633;49.168;9.848;2022-12-16T01:56:37;95606.84;;;4.57;63.02
40992;BME280;29633;49.168;9.848;2022-12-16T01:59:04;95607.78;;;4.56;62.88
40992;BME280;29633;49.168;9.848;2022-12-16T02:01:31;95607.78;;;4.56;63.12
40992;BME280;29633;49.168;9.848;2022-12-16T02:03:57;95605.34;;;4.55;62.85
40992;BME280;29633;49.168;9.848;2022-12-16T02:06:26;95608.16;;;4.52;63.04
40992;BME280;29633;49.168;9.848;2022-12-16T02:08:54;95605.69;;;4.50;63.07
40992;BME280;29633;49.168;9.848;2022-12-16T02:23:02;95625.03;;;4.43;63.10
40992;BME280;29633;49.168;9.848;2022-12-16T02:30:46;95627.81;;;4.40;63.10
40992;BME280;29633;49.168;9.848;2022-12-16T02:38:48;95650.09;;;4.39;63.06
40992;BME280;29633;49.168;9.848;2022-12-16T02:44:16;95649.28;;;4.39;62.89
40992;BME280;29633;49.168;9.848;2022-12-16T02:46:51;95650.91;;;4.40;63.15
40992;BME280;29633;49.168;9.848;2022-12-16T02:51:43;95641.56;;;4.39;63.31
40992;BME280;29633;49.168;9.848;2022-12-16T02:54:09;95639.00;;;4.39;63.18
40992;BME280;29633;49.168;9.848;2022-12-16T02:57:06;95637.97;;;4.41;63.12
40992;BME280;29633;49.168;9.848;2022-12-16T02:59:46;95641.34;;;4.42;63.18
40992;BME280;29633;49.168;9.848;2022-12-16T03:04:45;95630.25;;;4.41;63.09
40992;BME280;29633;49.168;9.848;2022-12-16T03:07:15;95629.34;;;4.42;63.11
40992;BME280;29633;49.168;9.848;2022-12-16T03:09:42;95635.41;;;4.41;63.16
40992;BME280;29633;49.168;9.848;2022-12-16T03:12:10;95628.66;;;4.40;62.88
40992;BME280;29633;49.168;9.848;2022-12-16T03:14:38;95636.34;;;4.40;62.92
40992;BME280;29633;49.168;9.848;2022-12-16T03:17:06;95624.34;;;4.41;62.84
40992;BME280;29633;49.168;9.848;2022-12-16T03:19:33;95632.81;;;4.41;63.04
40992;BME280;29633;49.168;9.848;2022-12-16T03:22:06;95635.41;;;4.41;63.01
40992;BME280;29633;49.168;9.848;2022-12-16T03:24:33;95631.22;;;4.40;62.97
40992;BME280;29633;49.168;9.848;2022-12-16T03:27:32;95636.22;;;4.42;62.94
40992;BME280;29633;49.168;9.848;2022-12-16T03:32:57;95636.22;;;4.42;63.16
40992;BME280;29633;49.168;9.848;2022-12-16T03:37:51;95646.72;;;4.39;63.02
40992;BME280;29633;49.168;9.848;2022-12-16T03:40:19;95652.06;;;4.36;63.40
40992;BME280;29633;49.168;9.848;2022-12-16T03:42:46;95656.38;;;4.35;63.16
40992;BME280;29633;49.168;9.848;2022-12-16T03:45:15;95659.88;;;4.34;63.04
40992;BME280;29633;49.168;9.848;2022-12-16T03:47:48;95662.56;;;4.33;63.11
40992;BME280;29633;49.168;9.848;2022-12-16T03:50:15;95672.94;;;4.31;63.20
40992;BME280;29633;49.168;9.848;2022-12-16T03:52:41;95675.63;;;4.30;63.29
40992;BME280;29633;49.168;9.848;2022-12-16T03:55:06;95680.16;;;4.26;63.30
40992;BME280;29633;49.168;9.848;2022-12-16T03:57:32;95684.34;;;4.27;63.42
40992;BME280;29633;49.168;9.848;2022-12-16T03:59:58;95677.00;;;4.23;63.48
40992;BME280;29633;49.168;9.848;2022-12-16T04:02:23;95680.72;;;4.19;63.42
40992;BME280;29633;49.168;9.848;2022-12-16T04:04:49;95685.94;;;4.17;63.32
40992;BME280;29633;49.168;9.848;2022-12-16T04:07:14;95692.81;;;4.17;63.61
40992;BME280;29633;49.168;9.848;2022-12-16T04:09:47;95697.72;;;4.20;63.43
40992;BME280;29633;49.168;9.848;2022-12-16T04:12:13;95700.28;;;4.20;63.51
40992;BME280;29633;49.168;9.848;2022-12-16T04:14:57;95704.38;;;4.22;63.65
40992;BME280;29633;49.168;9.848;2022-12-16T04:17:41;95699.13;;;4.24;63.42
40992;BME280;29633;49.168;9.848;2022-12-16T04:20:31;95699.84;;;4.26;63.37
40992;BME280;29633;49.168;9.848;2022-12-16T04:23:17;95699.13;;;4.24;63.39
40992;BME280;29633;49.168;9.848;2022-12-16T04:26:02;95712.69;;;4.26;63.21
40992;BME280;29633;49.168;9.848;2022-12-16T04:28:28;95710.81;;;4.28;63.44
40992;BME280;29633;49.168;9.848;2022-12-16T04:30:53;95714.28;;;4.27;63.46
40992;BME280;29633;49.168;9.848;2022-12-16T04:33:19;95720.06;;;4.30;63.31
40992;BME280;29633;49.168;9.848;2022-12-16T04:36:04;95714.91;;;4.30;63.21
40992;BME280;29633;49.168;9.848;2022-12-16T04:38:47;95720.84;;;4.31;63.30
40992;BME280;29633;49.168;9.848;2022-12-16T04:41:32;95719.22;;;4.30;63.09
40992;BME280;29633;49.168;9.848;2022-12-16T04:44:16;95724.34;;;4.30;63.30
40992;BME280;29633;49.168;9.848;2022-12-16T04:47:00;95729.59;;;4.28;63.43
40992;BME280;29633;49.168;9.848;2022-12-16T04:49:44;95732.16;;;4.28;63.21
40992;BME280;29633;49.168;9.848;2022-12-16T04:52:29;95729.81;;;4.25;63.39
40992;BME280;29633;49.168;9.848;2022-12-16T04:55:13;95731.66;;;4.23;63.45
40992;BME280;29633;49.168;9.848;2022-12-16T04:57:59;95736.09;;;4.21;63.53
40992;BME280;29633;49.168;9.848;2022-12-16T05:00:45;95735.16;;;4.22;63.66
40992;BME280;29633;49.168;9.848;2022-12-16T05:03:29;95735.16;;;4.22;63.63
40992;BME280;29633;49.168;9.848;2022-12-16T05:06:13;95732.69;;;4.21;63.42
40992;BME280;29633;49.168;9.848;2022-12-16T05:08:58;95731.78;;;4.22;63.42
40992;BME280;29633;49.168;9.848;2022-12-16T05:11:42;95738.44;;;4.24;63.46
40992;BME280;29633;49.168;9.848;2022-12-16T05:14:27;95737.72;;;4.22;63.39
40992;BME280;29633;49.168;9.848;2022-12-16T05:17:11;95748.31;;;4.18;63.65
40992;BME280;29633;49.168;9.848;2022-12-16T05:19:55;95752.84;;;4.14;63.81
40992;BME280;29633;49.168;9.848;2022-12-16T05:22:41;95752.25;;;4.11;63.89
40992;BME280;29633;49.168;9.848;2022-12-16T05:25:25;95754.72;;;4.12;63.58
40992;BME280;29633;49.168;9.848;2022-12-16T05:28:09;95755.41;;;4.14;63.59
40992;BME280;29633;49.168;9.848;2022-12-16T05:30:53;95763.19;;;4.13;63.68
40992;BME280;29633;49.168;9.848;2022-12-16T05:33:38;95767.31;;;4.15;63.56
40992;BME280;29633;49.168;9.848;2022-12-16T05:36:22;95773.44;;;4.13;63.84
40992;BME280;29633;49.168;9.848;2022-12-16T05:39:06;95786.50;;;4.10;63.78
40992;BME280;29633;49.168;9.848;2022-12-16T05:41:50;95772.97;;;4.08;63.85
40992;BME280;29633;49.168;9.848;2022-12-16T05:44:34;95779.25;;;4.04;63.67
40992;BME280;29633;49.168;9.848;2022-12-16T05:47:19;95790.53;;;4.01;63.80
40992;BME280;29633;49.168;9.848;2022-12-16T05:50:04;95790.72;;;3.98;64.09
40992;BME280;29633;49.168;9.848;2022-12-16T05:52:52;95797.03;;;3.94;64.03
40992;BME280;29633;49.168;9.848;2022-12-16T05:55:37;95801.44;;;3.92;63.65
40992;BME280;29633;49.168;9.848;2022-12-16T05:58:21;95800.59;;;3.91;63.96
40992;BME280;29633;49.168;9.848;2022-12-16T06:01:06;95812.41;;;3.94;63.87
40992;BME280;29633;49.168;9.848;2022-12-16T06:03:50;95813.19;;;3.94;63.83
40992;BME280;29633;49.168;9.848;2022-12-16T06:06:34;95817.19;;;3.98;63.85
40992;BME280;29633;49.168;9.848;2022-12-16T06:09:18;95817.81;;;4.02;63.42
40992;BME280;29633;49.168;9.848;2022-12-16T06:12:03;95822.22;;;4.00;63.79
40992;BME280;29633;49.168;9.848;2022-12-16T06:14:47;95822.22;;;4.00;63.70
40992;BME280;29633;49.168;9.848;2022-12-16T06:17:31;95830.97;;;3.97;63.62
40992;BME280;29633;49.168;9.848;2022-12-16T06:20:15;95839.66;;;3.95;63.72
40992;BME280;29633;49.168;9.848;2022-12-16T06:22:59;95836.09;;;3.97;63.83
40992;BME280;29633;49.168;9.848;2022-12-16T06:25:44;95843.97;;;3.94;63.78
40992;BME280;29633;49.168;9.848;2022-12-16T06:28:28;95850.88;;;3.94;63.98
40992;BME280;29633;49.168;9.848;2022-12-16T06:31:12;95856.09;;;3.92;64.06
40992;BME280;29633;49.168;9.848;2022-12-16T06:33:56;95851.78;;;3.93;63.89
40992;BME280;29633;49.168;9.848;2022-12-16T06:36:40;95863.56;;;3.95;63.74
40992;BME280;29633;49.168;9.848;2022-12-16T06:39:25;95865.44;;;3.93;63.76
40992;BME280;29633;49.168;9.848;2022-12-16T06:42:09;95866.25;;;3.94;63.58
40992;BME280;29633;49.168;9.848;2022-12-16T06:44:53;95873.81;;;3.95;63.86
40992;BME280;29633;49.168;9.848;2022-12-16T06:47:38;95876.38;;;3.95;63.85
40992;BME280;29633;49.168;9.848;2022-12-16T06:50:22;95872.19;;;3.94;63.61
40992;BME280;29633;49.168;9.848;2022-12-16T06:53:06;95887.56;;;3.94;63.65
40992;BME280;29633;49.168;9.848;2022-12-16T06:55:58;95884.28;;;3.92;63.98
40992;BME280;29633;49.168;9.848;2022-12-16T06:58:42;95888.59;;;3.92;63.79
40992;BME280;29633;49.168;9.848;2022-12-16T07:01:26;95894.34;;;3.95;63.61
40992;BME280;29633;49.168;9.848;2022-12-16T07:04:11;95902.16;;;3.94;63.83
40992;BME280;29633;49.168;9.848;2022-12-16T07:06:55;95913.31;;;3.93;63.90
40992;BME280;29633;49.168;9.848;2022-12-16T07:09:39;95919.16;;;3.95;63.51
40992;BME280;29633;49.168;9.848;2022-12-16T07:12:23;95920.09;;;3.94;63.81
40992;BME280;29633;49.168;9.848;2022-12-16T07:15:08;95925.22;;;3.94;63.85
40992;BME280;29633;49.168;9.848;2022-12-16T07:17:52;95927.06;;;3.92;63.74
40992;BME280;29633;49.168;9.848;2022-12-16T07:20:36;95938.84;;;3.94;63.84
40992;BME280;29633;49.168;9.848;2022-12-16T07:23:21;95941.41;;;3.94;63.70
40992;BME280;29633;49.168;9.848;2022-12-16T07:26:05;95946.53;;;3.94;63.61
40992;BME280;29633;49.168;9.848;2022-12-16T07:28:49;95956.47;;;3.99;63.58
40992;BME280;29633;49.168;9.848;2022-12-16T07:31:34;95960.56;;;4.02;63.45
40992;BME280;29633;49.168;9.848;2022-12-16T07:34:18;95966.53;;;4.02;63.82
40992;BME280;29633;49.168;9.848;2022-12-16T07:37:02;95967.97;;;4.06;63.43
40992;BME280;29633;49.168;9.848;2022-12-16T07:39:47;95968.78;;;4.07;63.51
40992;BME280;29633;49.168;9.848;2022-12-16T07:42:31;95959.97;;;4.11;63.49
40992;BME280;29633;49.168;9.848;2022-12-16T07:45:15;95958.09;;;4.13;63.30
40992;BME280;29633;49.168;9.848;2022-12-16T07:47:59;95966.53;;;4.15;63.48
40992;BME280;29633;49.168;9.848;2022-12-16T07:50:43;95966.31;;;4.18;63.32
40992;BME280;29633;49.168;9.848;2022-12-16T07:53:28;95974.63;;;4.21;63.17
40992;BME280;29633;49.168;9.848;2022-12-16T07:56:12;95989.94;;;4.23;63.13
40992;BME280;29633;49.168;9.848;2022-12-16T07:58:56;95988.69;;;4.28;63.17
40992;BME280;29633;49.168;9.848;2022-12-16T08:01:40;96002.13;;;4.32;63.16
40992;BME280;29633;49.168;9.848;2022-12-16T08:04:25;95995.94;;;4.34;62.91
40992;BME280;29633;49.168;9.848;2022-12-16T08:07:09;96000.06;;;4.37;62.97
40992;BME280;29633;49.168;9.848;2022-12-16T08:09:53;96005.81;;;4.40;63.15
40992;BME280;29633;49.168;9.848;2022-12-16T08:12:37;96009.09;;;4.42;63.04
40992;BME280;29633;49.168;9.848;2022-12-16T08:15:22;96010.59;;;4.45;62.91
40992;BME280;29633;49.168;9.848;2022-12-16T08:18:06;96014.72;;;4.47;62.91
40992;BME280;29633;49.168;9.848;2022-12-16T08:20:50;96009.38;;;4.51;62.84
40992;BME280;29633;49.168;9.848;2022-12-16T08:23:34;96020.25;;;4.54;62.60
40992;BME280;29633;49.168;9.848;2022-12-16T08:26:19;96020.97;;;4.56;62.81
40992;BME280;29633;49.168;9.848;2022-12-16T08:29:03;96029.59;;;4.55;62.80
40992;BME280;29633;49.168;9.848;2022-12-16T08:31:47;96038.13;;;4.56;62.77
40992;BME280;29633;49.168;9.848;2022-12-16T08:34:32;96039.75;;;4.57;63.00
40992;BME280;29633;49.168;9.848;2022-12-16T08:37:16;96042.00;;;4.61;63.12
40992;BME280;29633;49.168;9.848;2022-12-16T08:40:00;96043.66;;;4.62;63.11
40992;BME280;29633;49.168;9.848;2022-12-16T08:42:44;96042.63;;;4.65;62.72
40992;BME280;29633;49.168;9.848;2022-12-16T08:45:28;96051.03;;;4.67;62.91
40992;BME280;29633;49.168;9.848;2022-12-16T08:48:13;96052.59;;;4.69;62.69
40992;BME280;29633;49.168;9.848;2022-12-16T08:51:02;96051.44;;;4.61;62.79
40992;BME280;29633;49.168;9.848;2022-12-16T08:53:46;96061.09;;;4.57;62.93
40992;BME280;29633;49.168;9.848;2022-12-16T08:56:30;96059.66;;;4.53;63.10
40992;BME280;29633;49.168;9.848;2022-12-16T08:59:14;96062.34;;;4.52;63.19
40992;BME280;29633;49.168;9.848;2022-12-16T09:01:59;96071.50;;;4.56;63.41
40992;BME280;29633;49.168;9.848;2022-12-16T09:04:43;96073.03;;;4.58;63.02
40992;BME280;29633;49.168;9.848;2022-12-16T09:07:27;96079.47;;;4.64;63.12
40992;BME280;29633;49.168;9.848;2022-12-16T09:10:11;96088.53;;;4.69;63.07
40992;BME280;29633;49.168;9.848;2022-12-16T09:13:11;96092.63;;;4.72;63.18
40992;BME280;29633;49.168;9.848;2022-12-16T09:15:55;96096.00;;;4.72;63.29
40992;BME280;29633;49.168;9.848;2022-12-16T09:18:39;96097.84;;;4.70;63.48
40992;BME280;29633;49.168;9.848;2022-12-16T09:21:24;96098.78;;;4.69;63.19
40992;BME280;29633;49.168;9.848;2022-12-16T09:24:08;96099.41;;;4.73;63.06
40992;BME280;29633;49.168;9.848;2022-12-16T09:26:52;96109.38;;;4.77;63.11
40992;BME280;29633;49.168;9.848;2022-12-16T09:29:50;96098.16;;;4.78;63.05
40992;BME280;29633;49.168;9.848;2022-12-16T09:32:34;96114.06;;;4.83;62.76
40992;BME280;29633;49.168;9.848;2022-12-16T09:35:18;96109.97;;;4.81;62.78
40992;BME280;29633;49.168;9.848;2022-12-16T09:38:16;96116.72;;;4.82;63.00
40992;BME280;29633;49.168;9.848;2022-12-16T09:47:27;96125.88;;;4.99;62.77
40992;BME280;29633;49.168;9.848;2022-12-16T09:50:23;96123.72;;;5.05;62.73
40992;BME280;29633;49.168;9.848;2022-12-16T09:53:19;96118.34;;;5.08;62.75
40992;BME280;29633;49.168;9.848;2022-12-16T09:56:13;96130.88;;;5.13;62.58
40992;BME280;29633;49.168;9.848;2022-12-16T09:59:00;96129.75;;;5.17;62.47
40992;BME280;29633;49.168;9.848;2022-12-16T10:01:45;96136.72;;;5.15;62.62
40992;BME280;29633;49.168;9.848;2022-12-16T10:04:30;96123.19;;;5.13;62.75
40992;BME280;29633;49.168;9.848;2022-12-16T10:07:19;96129.03;;;5.15;62.65
40992;BME280;29633;49.168;9.848;2022-12-16T10:13:39;96142.47;;;5.18;62.36
40992;BME280;29633;49.168;9.848;2022-12-16T10:16:36;96143.09;;;5.22;62.38
40992;BME280;29633;49.168;9.848;2022-12-16T10:25:49;96137.72;;;5.25;62.44
40992;BME280;29633;49.168;9.848;2022-12-16T10:28:46;96148.22;;;5.22;62.62
40992;BME280;29633;49.168;9.848;2022-12-16T10:31:31;96139.69;;;5.21;62.54
40992;BME280;29633;49.168;9.848;2022-12-16T10:34:27;96143.81;;;5.24;62.55
40992;BME280;29633;49.168;9.848;2022-12-16T10:37:37;96137.41;;;5.29;62.57
40992;BME280;29633;49.168;9.848;2022-12-16T10:40:24;96134.41;;;5.35;62.52
40992;BME280;29633;49.168;9.848;2022-12-16T10:43:21;96138.31;;;5.41;62.38
40992;BME280;29633;49.168;9.848;2022-12-16T10:46:17;96138.91;;;5.44;62.35
40992;BME280;29633;49.168;9.848;2022-12-16T10:49:03;96145.38;;;5.50;62.32
40992;BME280;29633;49.168;9.848;2022-12-16T10:51:48;96152.28;;;5.50;62.13
40992;BME280;29633;49.168;9.848;2022-12-16T10:54:37;96147.47;;;5.45;62.40
40992;BME280;29633;49.168;9.848;2022-12-16T10:57:29;96148.16;;;5.47;62.31
40992;BME280;29633;49.168;9.848;2022-12-16T11:00:37;96149.50;;;5.53;62.17
40992;BME280;29633;49.168;9.848;2022-12-16T11:03:32;96156.06;;;5.57;62.33
40992;BME280;29633;49.168;9.848;2022-12-16T11:06:35;96150.81;;;5.58;62.35
40992;BME280;29633;49.168;9.848;2022-12-16T11:09:23;96147.63;;;5.55;62.44
40992;BME280;29633;49.168;9.848;2022-12-16T11:12:27;96152.28;;;5.50;62.55
40992;BME280;29633;49.168;9.848;2022-12-16T11:15:26;96160.59;;;5.53;62.41
40992;BME280;29633;49.168;9.848;2022-12-16T11:18:18;96157.91;;;5.55;62.42
40992;BME280;29633;49.168;9.848;2022-12-16T11:21:15;96159.13;;;5.62;62.53
40992;BME280;29633;49.168;9.848;2022-12-16T11:24:17;96162.72;;;5.59;62.58
40992;BME280;29633;49.168;9.848;2022-12-16T11:27:12;96155.94;;;5.58;62.57
40992;BME280;29633;49.168;9.848;2022-12-16T11:29:58;96162.22;;;5.54;62.51
40992;BME280;29633;49.168;9.848;2022-12-16T11:32:49;96170.47;;;5.46;62.75
40992;BME280;29633;49.168;9.848;2022-12-16T11:35:37;96175.72;;;5.45;62.78
40992;BME280;29633;49.168;9.848;2022-12-16T11:38:45;96176.56;;;5.45;62.71
40992;BME280;29633;49.168;9.848;2022-12-16T11:41:35;96185.19;;;5.44;62.71
40992;BME280;29633;49.168;9.848;2022-12-16T11:44:40;96192.13;;;5.31;62.72
40992;BME280;29633;49.168;9.848;2022-12-16T11:50:17;96189.63;;;5.30;62.74
40992;BME280;29633;49.168;9.848;2022-12-16T11:53:02;96199.00;;;5.31;62.91
40992;BME280;29633;49.168;9.848;2022-12-16T11:55:49;96192.28;;;5.28;62.85
40992;BME280;29633;49.168;9.848;2022-12-16T11:58:45;96201.03;;;5.26;62.92
40992;BME280;29633;49.168;9.848;2022-12-16T12:01:54;96198.38;;;5.27;62.93
40992;BME280;29633;49.168;9.848;2022-12-16T12:04:36;96197.56;;;5.27;63.04
40992;BME280;29633;49.168;9.848;2022-12-16T12:07:42;96206.69;;;5.31;63.07
40992;BME280;29633;49.168;9.848;2022-12-16T12:10:51;96207.53;;;5.31;63.04
40992;BME280;29633;49.168;9.848;2022-12-16T12:14:11;96209.28;;;5.31;62.92
40992;BME280;29633;49.168;9.848;2022-12-16T12:22:38;96207.09;;;5.37;62.95
40992;BME280;29633;49.168;9.848;2022-12-16T12:38:42;96237.38;;;5.58;62.59
40992;BME280;29633;49.168;9.848;2022-12-16T12:41:48;96239.34;;;5.54;62.77
40992;BME280;29633;49.168;9.848;2022-12-16T12:47:25;96241.81;;;5.56;62.67
40992;BME280;29633;49.168;9.848;2022-12-16T12:50:15;96244.00;;;5.49;62.69
40992;BME280;29633;49.168;9.848;2022-12-16T12:53:24;96253.31;;;5.50;62.88
40992;BME280;29633;49.168;9.848;2022-12-16T12:59:17;96253.84;;;5.55;62.56
40992;BME280;29633;49.168;9.848;2022-12-16T13:02:05;96255.19;;;5.48;62.72
40992;BME280;29633;49.168;9.848;2022-12-16T13:04:53;96256.84;;;5.49;62.62
40992;BME280;29633;49.168;9.848;2022-12-16T13:07:37;96263.81;;;5.47;62.72
40992;BME280;29633;49.168;9.848;2022-12-16T13:13:33;96270.00;;;5.44;62.79
40992;BME280;29633;49.168;9.848;2022-12-16T13:19:42;96265.69;;;5.45;62.64
40992;BME280;29633;49.168;9.848;2022-12-16T13:22:36;96277.94;;;5.41;62.63
40992;BME280;29633;49.168;9.848;2022-12-16T13:25:42;96277.19;;;5.39;62.86
40992;BME280;29633;49.168;9.848;2022-12-16T13:28:32;96278.03;;;5.40;62.61
40992;BME280;29633;49.168;9.848;2022-12-16T13:31:17;96281.50;;;5.39;62.66
40992;BME280;29633;49.168;9.848;2022-12-16T13:34:27;96278.22;;;5.37;62.58
40992;BME280;29633;49.168;9.848;2022-12-16T13:37:23;96295.19;;;5.39;62.72
40992;BME280;29633;49.168;9.848;2022-12-16T13:40:20;96293.44;;;5.40;62.51
40992;BME280;29633;49.168;9.848;2022-12-16T13:43:04;96292.63;;;5.39;62.63
40992;BME280;29633;49.168;9.848;2022-12-16T13:48:48;96299.19;;;5.43;62.29
40992;BME280;29633;49.168;9.848;2022-12-16T13:55:07;96320.81;;;5.41;62.23
40992;BME280;29633;49.168;9.848;2022-12-16T13:57:58;96324.41;;;5.38;62.33
40992;BME280;29633;49.168;9.848;2022-12-16T14:00:45;96328.81;;;5.36;62.27
40992;BME280;29633;49.168;9.848;2022-12-16T14:03:40;96334.97;;;5.34;62.31
40992;BME280;29633;49.168;9.848;2022-12-16T14:06:25;96346.09;;;5.34;62.51
40992;BME280;29633;49.168;9.848;2022-12-16T14:12:19;96346.31;;;5.31;62.22
40992;BME280;29633;49.168;9.848;2022-12-16T14:15:14;96346.69;;;5.25;62.30
40992;BME280;29633;49.168;9.848;2022-12-16T14:18:06;96357.78;;;5.26;62.39
40992;BME280;29633;49.168;9.848;2022-12-16T14:20:57;96364.38;;;5.17;62.53
40992;BME280;29633;49.168;9.848;2022-12-16T14:23:47;96367.84;;;5.16;62.40
40992;BME280;29633;49.168;9.848;2022-12-16T14:26:35;96377.84;;;5.21;62.32
40992;BME280;29633;49.168;9.848;2022-12-16T14:29:31;96382.56;;;5.27;62.37
40992;BME280;29633;49.168;9.848;2022-12-16T14:32:31;96383.41;;;5.27;62.25
40992;BME280;29633;49.168;9.848;2022-12-16T14:35:20;96378.75;;;5.32;62.24
40992;BME280;29633;49.168;9.848;2022-12-16T14:38:16;96386.59;;;5.31;62.06
40992;BME280;29633;49.168;9.848;2022-12-16T14:41:03;96391.19;;;5.26;62.10
40992;BME280;29633;49.168;9.848;2022-12-16T14:43:48;96392.72;;;5.28;62.13
40992;BME280;29633;49.168;9.848;2022-12-16T14:46:32;96391.00;;;5.29;62.00
40992;BME280;29633;49.168;9.848;2022-12-16T14:49:27;96401.38;;;5.27;61.94
40992;BME280;29633;49.168;9.848;2022-12-16T14:52:20;96402.00;;;5.31;61.95
40992;BME280;29633;49.168;9.848;2022-12-16T14:55:16;96411.34;;;5.32;62.03
40992;BME280;29633;49.168;9.848;2022-12-16T15:00:52;96422.66;;;5.29;62.03
40992;BME280;29633;49.168;9.848;2022-12-16T15:03:43;96422.94;;;5.25;62.15
40992;BME280;29633;49.168;9.848;2022-12-16T15:09:20;96428.50;;;5.19;61.97
40992;BME280;29633;49.168;9.848;2022-12-16T15:12:06;96431.81;;;5.21;61.96
40992;BME280;29633;49.168;9.848;2022-12-16T15:14:51;96435.56;;;5.15;62.16
40992;BME280;29633;49.168;9.848;2022-12-16T15:20:29;96454.03;;;5.08;62.37
40992;BME280;29633;49.168;9.848;2022-12-16T15:23:24;96449.19;;;5.03;62.15
40992;BME280;29633;49.168;9.848;2022-12-16T15:26:19;96452.44;;;4.92;62.44
40992;BME280;29633;49.168;9.848;2022-12-16T15:29:04;96465.28;;;4.92;62.18
40992;BME280;29633;49.168;9.848;2022-12-16T15:35:33;96472.97;;;4.92;62.32
40992;BME280;29633;49.168;9.848;2022-12-16T15:38:29;96474.84;;;4.90;62.38
40992;BME280;29633;49.168;9.848;2022-12-16T15:41:30;96474.09;;;4.88;62.32
40992;BME280;29633;49.168;9.848;2022-12-16T15:46:59;96486.13;;;4.88;62.16
40992;BME280;29633;49.168;9.848;2022-12-16T15:49:45;96488.41;;;4.92;62.01
40992;BME280;29633;49.168;9.848;2022-12-16T15:52:42;96495.94;;;4.95;62.19
40992;BME280;29633;49.168;9.848;2022-12-16T15:58:24;96501.34;;;4.91;61.99
40992;BME280;29633;49.168;9.848;2022-12-16T16:01:09;96512.53;;;4.90;62.14
40992;BME280;29633;49.168;9.848;2022-12-16T16:03:55;96514.19;;;4.91;62.05
40992;BME280;29633;49.168;9.848;2022-12-16T16:06:43;96522.09;;;4.88;61.84
40992;BME280;29633;49.168;9.848;2022-12-16T16:09:29;96523.06;;;4.85;62.19
40992;BME280;29633;49.168;9.848;2022-12-16T16:12:16;96529.88;;;4.86;61.97
40992;BME280;29633;49.168;9.848;2022-12-16T16:15:01;96531.88;;;4.81;61.83
40992;BME280;29633;49.168;9.848;2022-12-16T16:17:47;96531.16;;;4.79;62.25
40992;BME280;29633;49.168;9.848;2022-12-16T16:20:33;96539.91;;;4.77;62.24
40992;BME280;29633;49.168;9.848;2022-12-16T16:23:17;96533.94;;;4.76;62.02
40992;BME280;29633;49.168;9.848;2022-12-16T16:26:02;96537.41;;;4.75;62.18
40992;BME280;29633;49.168;9.848;2022-12-16T16:28:46;96540.72;;;4.77;62.01